createdAt,value
2022-10-08T00:02:05.937Z,13.07
2022-10-08T00:05:09.604Z,13.10
2022-10-08T00:08:12.562Z,12.90
2022-10-08T00:11:18.442Z,12.03
2022-10-08T00:14:23.472Z,12.43
2022-10-08T00:17:28.050Z,13.77
2022-10-08T00:20:30.927Z,14.13
2022-10-08T00:23:34.897Z,13.30
2022-10-08T00:26:43.617Z,13.50
2022-10-08T00:29:46.946Z,12.60
2022-10-08T00:32:51.256Z,12.30
2022-10-08T00:35:54.188Z,13.13
2022-10-08T00:38:57.914Z,12.37
2022-10-08T00:42:02.201Z,12.77
2022-10-08T00:45:06.374Z,13.17
2022-10-08T00:48:13.629Z,12.13
2022-10-08T00:51:16.521Z,12.17
2022-10-08T00:54:21.423Z,12.00
2022-10-08T00:57:24.723Z,13.17
2022-10-08T01:00:27.737Z,13.07
2022-10-08T01:03:31.973Z,14.47
2022-10-08T01:06:44.962Z,13.30
2022-10-08T01:09:55.544Z,13.93
2022-10-08T01:13:11.247Z,13.83
2022-10-08T01:16:26.944Z,13.77
2022-10-08T01:19:50.427Z,12.93
2022-10-08T01:23:20.304Z,13.27
2022-10-08T01:26:47.828Z,13.40
2022-10-08T01:29:52.878Z,14.17
2022-10-08T01:33:01.259Z,15.30
2022-10-08T01:36:05.649Z,14.20
2022-10-08T01:39:13.731Z,14.67
2022-10-08T01:42:18.137Z,15.07
2022-10-08T01:45:26.187Z,13.97
2022-10-08T01:48:32.739Z,14.67
2022-10-08T01:51:40.814Z,14.00
2022-10-08T01:54:48.281Z,13.03
2022-10-08T01:57:52.492Z,12.27
2022-10-08T02:00:58.318Z,11.27
2022-10-08T02:04:18.794Z,11.47
2022-10-08T02:07:24.082Z,11.00
2022-10-08T02:10:27.952Z,10.87
2022-10-08T02:13:31.379Z,11.57
2022-10-08T02:16:42.574Z,10.30
2022-10-08T02:19:54.366Z,9.83
2022-10-08T02:23:00.473Z,9.73
2022-10-08T02:26:06.989Z,10.77
2022-10-08T02:29:16.357Z,10.13
2022-10-08T02:32:24.803Z,9.53
2022-10-08T02:35:34.638Z,9.80
2022-10-08T02:38:41.778Z,9.97
2022-10-08T02:41:50.168Z,8.73
2022-10-08T02:44:58.118Z,8.37
2022-10-08T02:48:08.046Z,8.60
2022-10-08T02:51:15.656Z,8.87
2022-10-08T02:54:21.442Z,8.90
2022-10-08T02:57:29.901Z,8.40
2022-10-08T03:00:37.209Z,7.37
2022-10-08T03:03:47.961Z,7.63
2022-10-08T03:06:53.312Z,8.80
2022-10-08T03:09:59.007Z,7.17
2022-10-08T03:13:02.688Z,7.80
2022-10-08T03:16:09.012Z,8.13
2022-10-08T03:19:16.331Z,5.93
2022-10-08T03:22:19.312Z,7.27
2022-10-08T03:25:22.309Z,6.80
2022-10-08T03:28:25.230Z,6.80
2022-10-08T03:31:28.286Z,5.80
2022-10-08T03:34:32.701Z,5.97
2022-10-08T03:37:35.603Z,5.73
2022-10-08T03:40:38.498Z,5.73
2022-10-08T03:43:41.949Z,5.00
2022-10-08T03:46:44.836Z,4.47
2022-10-08T03:49:49.158Z,4.63
2022-10-08T03:52:52.093Z,4.60
2022-10-08T03:55:55.501Z,4.93
2022-10-08T03:58:59.822Z,4.17
2022-10-08T04:02:02.733Z,4.60
2022-10-08T04:05:08.020Z,5.10
2022-10-08T04:08:10.882Z,4.33
2022-10-08T04:11:16.658Z,4.27
2022-10-08T04:14:19.512Z,4.43
2022-10-08T04:17:22.375Z,5.00
2022-10-08T04:20:26.594Z,5.10
2022-10-08T04:23:31.711Z,4.67
2022-10-08T04:26:34.590Z,4.17
2022-10-08T04:29:37.428Z,4.60
2022-10-08T04:32:40.308Z,5.30
2022-10-08T04:35:44.504Z,4.13
2022-10-08T04:38:48.235Z,4.03
2022-10-08T04:41:51.140Z,5.37
2022-10-08T04:44:54.014Z,4.10
2022-10-08T04:47:56.870Z,4.83
2022-10-08T04:51:04.886Z,5.20
2022-10-08T04:54:10.129Z,4.60
2022-10-08T04:57:13.172Z,4.70
2022-10-08T05:00:18.709Z,4.90
2022-10-08T05:03:21.940Z,5.13
2022-10-08T05:06:28.272Z,3.73
2022-10-08T05:09:31.222Z,4.17
2022-10-08T05:12:34.543Z,4.20
2022-10-08T05:15:37.438Z,4.77
2022-10-08T05:18:41.578Z,4.60
2022-10-08T05:21:45.790Z,5.03
2022-10-08T05:24:48.708Z,4.57
2022-10-08T05:27:51.594Z,5.53
2022-10-08T05:30:54.517Z,4.90
2022-10-08T05:33:58.232Z,4.37
2022-10-08T05:37:02.454Z,4.37
2022-10-08T05:40:05.864Z,4.23
2022-10-08T05:43:08.695Z,3.87
2022-10-08T05:46:12.562Z,4.47
2022-10-08T05:49:20.772Z,4.50
2022-10-08T05:52:27.039Z,4.27
2022-10-08T05:55:30.009Z,3.97
2022-10-08T05:58:33.897Z,3.77
2022-10-08T06:01:36.754Z,4.73
2022-10-08T06:04:39.631Z,4.20
2022-10-08T06:07:43.866Z,3.90
2022-10-08T06:10:50.812Z,3.97
2022-10-08T06:13:54.545Z,4.07
2022-10-08T06:16:57.429Z,4.30
2022-10-08T06:20:00.283Z,4.43
2022-10-08T06:23:04.713Z,3.97
2022-10-08T06:26:10.068Z,5.70
2022-10-08T06:29:16.090Z,4.30
2022-10-08T06:32:18.986Z,4.93
2022-10-08T06:35:21.881Z,5.23
2022-10-08T06:38:26.082Z,4.83
2022-10-08T06:41:30.957Z,4.83
2022-10-08T06:44:33.906Z,5.57
2022-10-08T06:47:36.764Z,5.23
2022-10-08T06:50:40.365Z,4.77
2022-10-08T06:53:47.735Z,3.83
2022-10-08T06:56:50.598Z,4.57
2022-10-08T06:59:54.494Z,3.80
2022-10-08T07:02:57.634Z,4.70
2022-10-08T07:06:02.062Z,4.60
2022-10-08T07:09:07.084Z,4.60
2022-10-08T07:12:09.984Z,4.67
2022-10-08T07:15:12.849Z,4.93
2022-10-08T07:18:16.135Z,6.07
2022-10-08T07:21:21.880Z,6.77
2022-10-08T07:24:26.074Z,7.63
2022-10-08T07:27:29.129Z,7.40
2022-10-08T07:30:33.026Z,6.20
2022-10-08T07:33:36.201Z,5.10
2022-10-08T07:36:39.900Z,4.67
2022-10-08T07:39:44.163Z,3.83
2022-10-08T07:42:47.305Z,3.43
2022-10-08T07:45:51.184Z,4.37
2022-10-08T07:48:54.898Z,5.13
2022-10-08T07:51:57.786Z,4.90
2022-10-08T07:55:02.003Z,4.87
2022-10-08T07:58:05.392Z,5.63
2022-10-08T08:01:11.179Z,5.60
2022-10-08T08:04:14.916Z,6.93
2022-10-08T08:07:17.787Z,6.10
2022-10-08T08:10:21.998Z,5.13
2022-10-08T08:13:25.168Z,6.03
2022-10-08T08:16:29.674Z,5.60
2022-10-08T08:19:32.632Z,5.47
2022-10-08T08:22:35.518Z,5.47
2022-10-08T08:25:40.371Z,5.23
2022-10-08T08:28:43.406Z,5.07
2022-10-08T08:31:47.960Z,5.53
2022-10-08T08:34:50.877Z,5.40
2022-10-08T08:37:53.748Z,5.30
2022-10-08T08:41:12.761Z,5.30
2022-10-08T08:44:21.964Z,5.37
2022-10-08T08:47:32.229Z,5.90
2022-10-08T08:50:38.037Z,5.43
2022-10-08T08:53:40.931Z,5.43
2022-10-08T08:56:45.382Z,6.17
2022-10-08T08:59:50.402Z,5.43
2022-10-08T09:02:58.903Z,5.77
2022-10-08T09:06:09.765Z,5.93
2022-10-08T09:09:26.862Z,5.40
2022-10-08T09:12:37.403Z,4.97
2022-10-08T09:15:40.662Z,5.03
2022-10-08T09:18:49.637Z,5.43
2022-10-08T09:21:52.975Z,5.10
2022-10-08T09:24:58.900Z,4.63
2022-10-08T09:28:04.845Z,4.93
2022-10-08T09:31:30.292Z,5.30
2022-10-08T09:34:33.754Z,4.93
2022-10-08T09:37:37.040Z,5.23
2022-10-08T09:40:40.318Z,4.60
2022-10-08T09:43:45.859Z,4.97
2022-10-08T09:46:49.730Z,5.00
2022-10-08T09:50:04.404Z,5.73
2022-10-08T09:53:07.718Z,5.20
2022-10-08T09:56:11.818Z,5.13
2022-10-08T09:59:19.395Z,6.57
2022-10-08T10:02:30.417Z,5.00
2022-10-08T10:05:35.229Z,5.40
2022-10-08T10:08:55.849Z,5.40
2022-10-08T10:12:01.268Z,5.80
2022-10-08T10:15:07.261Z,4.80
2022-10-08T10:18:13.214Z,5.97
2022-10-08T10:21:18.072Z,5.67
2022-10-08T10:24:28.477Z,5.90
2022-10-08T10:27:33.950Z,5.70
2022-10-08T10:30:44.367Z,5.67
2022-10-08T10:33:52.337Z,5.80
2022-10-08T10:36:57.800Z,6.17
2022-10-08T10:40:05.088Z,6.13
2022-10-08T10:43:17.476Z,5.47
2022-10-08T10:46:25.966Z,5.37
2022-10-08T10:49:33.788Z,4.70
2022-10-08T10:52:46.145Z,5.60
2022-10-08T10:55:54.702Z,5.90
2022-10-08T10:59:06.244Z,4.87
2022-10-08T11:02:14.873Z,5.70
2022-10-08T11:05:20.419Z,5.50
2022-10-08T11:08:30.265Z,5.87
2022-10-08T11:11:35.695Z,4.87
2022-10-08T11:14:44.695Z,6.57
2022-10-08T11:17:55.579Z,6.40
2022-10-08T11:21:04.217Z,5.20
2022-10-08T11:24:15.745Z,5.80
2022-10-08T11:27:23.531Z,5.63
2022-10-08T11:30:33.812Z,5.20
2022-10-08T11:33:38.917Z,5.27
2022-10-08T11:36:45.610Z,5.53
2022-10-08T11:39:53.796Z,5.63
2022-10-08T11:43:01.944Z,5.60
2022-10-08T11:46:15.470Z,5.77
2022-10-08T11:49:37.329Z,5.87
2022-10-08T11:52:42.022Z,5.50
2022-10-08T11:55:50.645Z,5.30
2022-10-08T11:58:55.123Z,6.87
2022-10-08T12:01:59.291Z,5.93
2022-10-08T12:05:18.441Z,6.77
2022-10-08T12:08:40.394Z,6.03
2022-10-08T12:11:52.055Z,6.63
2022-10-08T12:14:55.536Z,6.87
2022-10-08T12:17:59.344Z,7.37
2022-10-08T12:21:20.897Z,6.87
2022-10-08T12:24:49.612Z,7.17
2022-10-08T12:28:15.081Z,6.70
2022-10-08T12:31:29.221Z,6.50
2022-10-08T12:34:32.508Z,6.53
2022-10-08T12:37:42.734Z,7.20
2022-10-08T12:40:49.179Z,7.20
2022-10-08T12:43:57.174Z,7.10
2022-10-08T12:47:04.219Z,7.43
2022-10-08T12:50:14.689Z,7.93
2022-10-08T12:53:18.293Z,8.73
2022-10-08T12:56:24.445Z,7.77
2022-10-08T12:59:31.511Z,8.23
2022-10-08T13:02:39.177Z,8.93
2022-10-08T13:05:44.258Z,8.97
2022-10-08T13:08:50.736Z,10.80
2022-10-08T13:11:58.316Z,10.43
2022-10-08T13:15:09.381Z,10.80
2022-10-08T13:18:16.608Z,10.23
2022-10-08T13:21:43.936Z,9.70
2022-10-08T13:24:47.456Z,8.77
2022-10-08T13:28:08.512Z,9.13
2022-10-08T13:31:22.000Z,8.37
2022-10-08T13:34:26.565Z,9.30
2022-10-08T13:37:31.634Z,9.97
2022-10-08T13:40:35.097Z,10.90
2022-10-08T13:43:38.635Z,9.80
2022-10-08T13:46:43.284Z,9.50
2022-10-08T13:49:46.856Z,9.30
2022-10-08T13:52:54.710Z,10.63
2022-10-08T13:55:58.056Z,10.13
2022-10-08T13:59:01.280Z,11.07
2022-10-08T14:02:05.953Z,10.43
2022-10-08T14:05:09.615Z,10.57
2022-10-08T14:08:15.704Z,11.03
2022-10-08T14:11:19.044Z,10.60
2022-10-08T14:14:22.273Z,10.67
2022-10-08T14:17:27.021Z,11.13
2022-10-08T14:20:30.292Z,10.93
2022-10-08T14:23:33.567Z,11.37
2022-10-08T14:26:36.975Z,12.17
2022-10-08T14:29:40.231Z,10.50
2022-10-08T14:32:44.885Z,10.80
2022-10-08T14:35:51.983Z,10.30
2022-10-08T14:38:55.248Z,9.00
2022-10-08T14:41:58.567Z,8.57
2022-10-08T14:45:01.819Z,7.67
2022-10-08T14:48:06.649Z,11.20
2022-10-08T14:51:09.911Z,9.33
2022-10-08T14:54:13.190Z,8.87
2022-10-08T14:57:16.435Z,9.57
2022-10-08T15:00:19.814Z,9.23
2022-10-08T15:03:24.923Z,8.40
2022-10-08T15:06:28.173Z,10.00
2022-10-08T15:09:31.577Z,9.40
2022-10-08T15:12:34.952Z,10.27
2022-10-08T15:15:41.142Z,11.37
2022-10-08T15:18:45.338Z,10.80
2022-10-08T15:21:48.275Z,10.93
2022-10-08T15:24:51.149Z,10.70
2022-10-08T15:27:54.072Z,9.70
2022-10-08T15:31:05.258Z,10.33
2022-10-08T15:34:17.245Z,9.53
2022-10-08T15:37:20.220Z,11.13
2022-10-08T15:40:23.078Z,11.30
2022-10-08T15:43:33.826Z,9.80
2022-10-08T15:46:37.435Z,10.47
2022-10-08T15:49:43.667Z,11.80
2022-10-08T15:52:46.932Z,12.33
2022-10-08T15:55:55.562Z,11.40
2022-10-08T15:58:59.715Z,12.20
2022-10-08T16:02:02.644Z,13.60
2022-10-08T16:05:07.661Z,12.53
2022-10-08T16:08:10.492Z,13.57
2022-10-08T16:11:15.578Z,13.40
2022-10-08T16:14:20.884Z,14.00
2022-10-08T16:17:23.996Z,13.97
2022-10-08T16:20:28.226Z,14.03
2022-10-08T16:23:33.519Z,13.47
2022-10-08T16:26:36.948Z,13.80
2022-10-08T16:29:39.806Z,14.20
2022-10-08T16:32:42.684Z,13.90
2022-10-08T16:35:46.913Z,13.83
2022-10-08T16:38:50.094Z,14.43
2022-10-08T16:41:53.150Z,13.77
2022-10-08T16:44:56.014Z,13.50
2022-10-08T16:48:00.365Z,15.00
2022-10-08T16:51:04.952Z,16.47
2022-10-08T16:54:10.053Z,16.07
2022-10-08T16:57:12.961Z,15.73
2022-10-08T17:00:16.550Z,16.50
2022-10-08T17:03:19.396Z,14.60
2022-10-08T17:06:24.930Z,14.37
2022-10-08T17:09:27.868Z,11.77
2022-10-08T17:12:30.741Z,10.50
2022-10-08T17:15:33.644Z,9.40
2022-10-08T17:18:37.048Z,10.13
2022-10-08T17:21:41.601Z,8.47
2022-10-08T17:24:44.481Z,8.67
2022-10-08T17:27:47.362Z,8.20
2022-10-08T17:30:50.479Z,7.57
2022-10-08T17:33:53.806Z,7.07
2022-10-08T17:36:58.115Z,6.73
2022-10-08T17:40:00.978Z,5.60
2022-10-08T17:43:03.856Z,5.90
2022-10-08T17:46:07.760Z,5.53
2022-10-08T17:49:10.792Z,4.77
2022-10-08T17:52:15.112Z,5.03
2022-10-08T17:55:18.088Z,5.83
2022-10-08T17:58:20.923Z,5.17
2022-10-08T18:01:25.960Z,5.80
2022-10-08T18:04:28.925Z,4.77
2022-10-08T18:07:33.150Z,5.43
2022-10-08T18:10:38.179Z,5.53
2022-10-08T18:13:41.551Z,4.50
2022-10-08T18:16:48.161Z,5.40
2022-10-08T18:19:51.664Z,4.60
2022-10-08T18:22:55.925Z,5.13
2022-10-08T18:26:08.275Z,5.63
2022-10-08T18:29:13.501Z,5.27
2022-10-08T18:32:16.441Z,5.60
2022-10-08T18:35:19.611Z,6.03
2022-10-08T18:38:23.919Z,6.37
2022-10-08T18:41:29.220Z,5.87
2022-10-08T18:44:32.077Z,7.00
2022-10-08T18:47:34.956Z,6.50
2022-10-08T18:50:37.830Z,7.53
2022-10-08T18:53:42.953Z,7.17
2022-10-08T18:56:46.137Z,13.53
2022-10-08T18:59:50.248Z,20.03
2022-10-08T19:02:54.486Z,16.07
2022-10-08T19:05:57.611Z,12.80
2022-10-08T19:09:03.192Z,11.83
2022-10-08T19:12:07.911Z,11.33
2022-10-08T19:15:11.261Z,11.67
2022-10-08T19:18:14.124Z,11.60
2022-10-08T19:21:16.976Z,11.17
2022-10-08T19:24:23.450Z,11.13
2022-10-08T19:27:26.378Z,12.73
2022-10-08T19:30:34.180Z,13.93
2022-10-08T19:33:37.065Z,13.47
2022-10-08T19:36:40.300Z,13.23
2022-10-08T19:39:47.155Z,11.90
2022-10-08T19:42:50.526Z,10.67
2022-10-08T19:45:53.700Z,10.57
2022-10-08T19:48:58.307Z,10.13
2022-10-08T19:52:01.413Z,11.27
2022-10-08T19:55:06.508Z,10.37
2022-10-08T19:58:09.365Z,10.30
2022-10-08T20:01:15.158Z,10.23
2022-10-08T20:04:18.128Z,11.43
2022-10-08T20:07:21.017Z,11.87
2022-10-08T20:10:26.953Z,12.97
2022-10-08T20:13:29.838Z,14.17
2022-10-08T20:16:34.597Z,12.50
2022-10-08T20:19:37.676Z,14.50
2022-10-08T20:22:40.538Z,15.97
2022-10-08T20:25:46.156Z,13.57
2022-10-08T20:28:51.306Z,13.30
2022-10-08T20:31:55.969Z,12.90
2022-10-08T20:34:58.826Z,13.33
2022-10-08T20:38:01.714Z,12.47
2022-10-08T20:41:06.984Z,13.33
2022-10-08T20:44:10.245Z,11.53
2022-10-08T20:47:13.272Z,11.63
2022-10-08T20:50:16.344Z,11.27
2022-10-08T20:53:19.400Z,10.47
2022-10-08T20:56:24.884Z,10.23
2022-10-08T20:59:27.980Z,11.07
2022-10-08T21:02:30.865Z,12.33
2022-10-08T21:05:39.997Z,11.67
2022-10-08T21:08:44.903Z,12.60
2022-10-08T21:11:49.661Z,11.60
2022-10-08T21:14:52.568Z,11.40
2022-10-08T21:17:55.435Z,12.80
2022-10-08T21:21:02.496Z,10.63
2022-10-08T21:24:05.632Z,11.20
2022-10-08T21:27:09.882Z,11.30
2022-10-08T21:30:13.796Z,9.97
2022-10-08T21:33:17.774Z,11.30
2022-10-08T21:36:23.869Z,9.63
2022-10-08T21:39:26.772Z,9.27
2022-10-08T21:42:30.998Z,9.67
2022-10-08T21:45:33.888Z,9.03
2022-10-08T21:48:37.121Z,9.43
2022-10-08T21:51:40.041Z,9.20
2022-10-08T21:54:42.892Z,8.37
2022-10-08T21:57:47.269Z,8.23
2022-10-08T22:00:50.445Z,9.17
2022-10-08T22:03:57.657Z,7.97
2022-10-08T22:07:01.866Z,8.00
2022-10-08T22:10:05.062Z,8.40
2022-10-08T22:13:09.435Z,8.97
2022-10-08T22:16:14.014Z,9.13
2022-10-08T22:19:17.499Z,9.33
2022-10-08T22:22:20.626Z,10.20
2022-10-08T22:25:23.482Z,9.10
2022-10-08T22:28:28.373Z,9.20
2022-10-08T22:31:32.162Z,7.57
2022-10-08T22:34:35.441Z,9.23
2022-10-08T22:37:38.322Z,9.67
2022-10-08T22:40:41.158Z,8.40
2022-10-08T22:43:46.109Z,7.47
2022-10-08T22:46:48.985Z,8.73
2022-10-08T22:49:51.824Z,7.43
2022-10-08T22:52:54.760Z,7.47
2022-10-08T22:55:57.748Z,7.67
2022-10-08T22:59:02.221Z,7.23
2022-10-08T23:02:05.179Z,7.50
2022-10-08T23:05:08.665Z,7.57
2022-10-08T23:08:11.525Z,7.77
2022-10-08T23:11:16.940Z,7.77
2022-10-08T23:14:21.404Z,7.50
2022-10-08T23:17:24.253Z,7.53
2022-10-08T23:20:27.094Z,7.13
2022-10-08T23:23:30.252Z,7.67
2022-10-08T23:26:33.121Z,8.17
2022-10-08T23:29:37.569Z,6.60
2022-10-08T23:32:40.425Z,6.77
2022-10-08T23:35:43.329Z,6.80
2022-10-08T23:38:46.754Z,7.60
2022-10-08T23:41:49.601Z,6.53
2022-10-08T23:44:53.793Z,6.83
2022-10-08T23:47:56.681Z,5.87
2022-10-08T23:50:59.636Z,5.90
2022-10-08T23:54:02.798Z,5.77
2022-10-08T23:57:05.704Z,6.27
